createdAt,value
2023-12-09T00:02:23.901Z,33.60
2023-12-09T00:05:26.829Z,30.73
2023-12-09T00:08:31.055Z,31.90
2023-12-09T00:11:33.924Z,29.08
2023-12-09T00:14:36.881Z,30.23
2023-12-09T00:17:39.783Z,31.67
2023-12-09T00:20:42.568Z,29.77
2023-12-09T00:23:49.800Z,30.08
2023-12-09T00:26:52.656Z,28.08
2023-12-09T00:29:55.596Z,28.57
2023-12-09T00:32:58.523Z,36.63
2023-12-09T00:36:01.336Z,30.67
2023-12-09T00:39:06.321Z,29.95
2023-12-09T00:42:09.269Z,31.92
2023-12-09T00:45:12.652Z,35.43
2023-12-09T00:48:15.778Z,34.07
2023-12-09T00:51:18.883Z,31.17
2023-12-09T00:54:23.039Z,31.13
2023-12-09T00:57:26.098Z,28.25
2023-12-09T01:00:28.971Z,29.50
2023-12-09T01:03:31.969Z,31.33
2023-12-09T01:06:35.029Z,29.75
2023-12-09T01:09:39.185Z,29.95
2023-12-09T01:12:42.249Z,28.73
2023-12-09T01:15:45.011Z,33.10
2023-12-09T01:18:48.192Z,30.43
2023-12-09T01:21:51.014Z,29.58
2023-12-09T01:24:55.092Z,30.42
2023-12-09T01:27:57.967Z,29.80
2023-12-09T01:31:00.959Z,32.80
2023-12-09T01:34:04.314Z,26.57
2023-12-09T01:37:07.368Z,32.10
2023-12-09T01:40:16.781Z,30.38
2023-12-09T01:43:19.581Z,30.02
2023-12-09T01:46:23.649Z,28.00
2023-12-09T01:49:26.982Z,26.20
2023-12-09T01:52:30.767Z,30.83
2023-12-09T01:55:35.408Z,29.05
2023-12-09T01:58:39.656Z,26.90
2023-12-09T02:01:42.602Z,31.60
2023-12-09T02:04:45.559Z,29.20
2023-12-09T02:07:48.262Z,29.48
2023-12-09T02:11:02.863Z,30.00
2023-12-09T02:14:09.511Z,29.75
2023-12-09T02:17:17.132Z,26.60
2023-12-09T02:20:20.286Z,31.47
2023-12-09T02:23:24.383Z,30.63
2023-12-09T02:26:28.501Z,28.98
2023-12-09T02:29:41.141Z,28.58
2023-12-09T02:32:46.095Z,30.30
2023-12-09T02:35:51.482Z,27.90
2023-12-09T02:38:56.806Z,30.45
2023-12-09T02:42:00.706Z,33.40
2023-12-09T02:45:03.970Z,32.30
2023-12-09T02:48:07.132Z,31.03
2023-12-09T02:51:10.212Z,30.37
2023-12-09T02:54:14.806Z,29.98
2023-12-09T02:57:17.726Z,30.88
2023-12-09T03:00:20.538Z,28.25
2023-12-09T03:03:23.568Z,30.13
2023-12-09T03:06:26.451Z,30.60
2023-12-09T03:09:30.736Z,30.15
2023-12-09T03:12:33.675Z,34.25
2023-12-09T03:15:36.621Z,32.08
2023-12-09T03:18:39.690Z,30.80
2023-12-09T03:21:42.521Z,32.23
2023-12-09T03:24:46.682Z,31.80
2023-12-09T03:27:49.522Z,31.17
2023-12-09T03:30:52.250Z,32.05
2023-12-09T03:33:56.508Z,33.80
2023-12-09T03:36:59.604Z,34.40
2023-12-09T03:40:11.265Z,34.42
2023-12-09T03:43:14.069Z,37.17
2023-12-09T03:46:17.086Z,35.50
2023-12-09T03:49:20.036Z,36.40
2023-12-09T03:52:22.835Z,32.30
2023-12-09T03:55:26.952Z,35.17
2023-12-09T03:58:29.683Z,34.58
2023-12-09T04:01:32.623Z,32.60
2023-12-09T04:04:35.419Z,34.08
2023-12-09T04:07:38.413Z,39.45
2023-12-09T04:10:42.834Z,38.10
2023-12-09T04:13:45.794Z,35.42
2023-12-09T04:16:48.506Z,34.43
2023-12-09T04:19:53.038Z,33.17
2023-12-09T04:22:55.927Z,36.13
2023-12-09T04:26:00.442Z,37.80
2023-12-09T04:29:04.088Z,38.60
2023-12-09T04:32:07.336Z,34.60
2023-12-09T04:35:10.855Z,34.70
2023-12-09T04:38:13.594Z,36.13
2023-12-09T04:41:17.790Z,38.63
2023-12-09T04:44:20.667Z,35.85
2023-12-09T04:47:23.692Z,38.57
2023-12-09T04:50:26.932Z,39.22
2023-12-09T04:53:29.661Z,39.30
2023-12-09T04:56:33.917Z,39.47
2023-12-09T04:59:36.826Z,39.92
2023-12-09T05:02:39.598Z,41.83
2023-12-09T05:05:42.682Z,34.58
2023-12-09T05:08:45.428Z,40.17
2023-12-09T05:11:49.526Z,36.15
2023-12-09T05:14:52.244Z,35.83
2023-12-09T05:17:55.720Z,41.80
2023-12-09T05:20:58.640Z,41.25
2023-12-09T05:24:01.420Z,41.63
2023-12-09T05:27:06.185Z,48.25
2023-12-09T05:30:10.101Z,41.95
2023-12-09T05:33:12.959Z,40.83
2023-12-09T05:36:16.032Z,41.53
2023-12-09T05:39:18.966Z,39.88
2023-12-09T05:42:23.206Z,41.67
2023-12-09T05:45:29.661Z,42.35
2023-12-09T05:48:34.650Z,34.80
2023-12-09T05:51:37.807Z,42.33
2023-12-09T05:54:40.644Z,41.95
2023-12-09T05:57:45.070Z,36.88
2023-12-09T06:00:48.145Z,41.97
2023-12-09T06:03:50.962Z,40.60
2023-12-09T06:06:54.143Z,46.30
2023-12-09T06:09:56.888Z,41.83
2023-12-09T06:13:01.170Z,43.53
2023-12-09T06:16:04.094Z,38.42
2023-12-09T06:19:06.820Z,46.17
2023-12-09T06:22:09.732Z,40.45
2023-12-09T06:25:12.616Z,43.25
2023-12-09T06:28:16.717Z,41.25
2023-12-09T06:31:19.429Z,46.45
2023-12-09T06:34:22.262Z,45.63
2023-12-09T06:37:25.062Z,45.30
2023-12-09T06:40:28.036Z,46.83
2023-12-09T06:43:33.671Z,38.75
2023-12-09T06:46:39.113Z,40.30
2023-12-09T06:49:41.925Z,49.70
2023-12-09T06:52:45.210Z,46.70
2023-12-09T06:55:47.913Z,48.53
2023-12-09T06:58:52.465Z,46.28
2023-12-09T07:01:58.068Z,48.58
2023-12-09T07:05:00.809Z,43.87
2023-12-09T07:08:04.019Z,38.80
2023-12-09T07:11:07.724Z,41.67
2023-12-09T07:14:11.917Z,44.67
2023-12-09T07:17:14.776Z,37.42
2023-12-09T07:20:17.922Z,39.57
2023-12-09T07:23:20.778Z,37.63
2023-12-09T07:26:23.515Z,41.25
2023-12-09T07:29:29.599Z,38.65
2023-12-09T07:32:33.815Z,38.67
2023-12-09T07:35:36.856Z,33.03
2023-12-09T07:38:39.764Z,35.28
2023-12-09T07:41:44.137Z,34.28
2023-12-09T07:44:48.289Z,34.55
2023-12-09T07:47:51.178Z,35.22
2023-12-09T07:50:53.976Z,33.70
2023-12-09T07:56:59.637Z,38.97
2023-12-09T08:00:04.936Z,38.28
2023-12-09T08:03:07.756Z,33.42
2023-12-09T08:06:11.640Z,34.97
2023-12-09T08:09:14.613Z,35.15
2023-12-09T08:12:17.365Z,30.25
2023-12-09T08:15:21.600Z,32.70
2023-12-09T08:18:24.481Z,39.28
2023-12-09T08:21:27.426Z,36.87
2023-12-09T08:24:30.305Z,34.42
2023-12-09T08:27:33.128Z,34.60
2023-12-09T08:30:37.610Z,32.97
2023-12-09T08:33:41.269Z,33.78
2023-12-09T08:36:44.408Z,30.27
2023-12-09T08:39:48.847Z,28.63
2023-12-09T08:42:51.963Z,34.38
2023-12-09T08:45:56.047Z,32.38
2023-12-09T08:48:58.940Z,31.17
2023-12-09T08:52:01.773Z,30.27
2023-12-09T08:55:04.735Z,27.98
2023-12-09T08:58:07.492Z,26.40
2023-12-09T09:01:13.414Z,30.10
2023-12-09T09:04:17.019Z,27.25
2023-12-09T09:07:20.004Z,26.80
2023-12-09T09:10:24.029Z,29.23
2023-12-09T09:13:29.785Z,28.60
2023-12-09T09:16:34.028Z,25.55
2023-12-09T09:19:36.939Z,31.35
2023-12-09T09:22:47.497Z,26.73
2023-12-09T09:25:52.573Z,26.50
2023-12-09T09:28:56.297Z,26.73
2023-12-09T09:32:00.477Z,23.50
2023-12-09T09:35:04.277Z,29.13
2023-12-09T09:38:07.489Z,26.67
2023-12-09T09:41:17.269Z,26.83
2023-12-09T09:44:23.726Z,25.08
2023-12-09T09:47:30.907Z,26.98
2023-12-09T09:50:40.706Z,27.67
2023-12-09T09:53:52.727Z,30.07
2023-12-09T09:56:59.193Z,28.90
2023-12-09T10:00:02.769Z,29.15
2023-12-09T10:03:07.709Z,30.48
2023-12-09T10:06:12.877Z,25.83
2023-12-09T10:09:16.218Z,28.93
2023-12-09T10:12:19.118Z,32.25
2023-12-09T10:15:22.656Z,29.13
2023-12-09T10:18:27.241Z,32.25
2023-12-09T10:21:30.172Z,27.55
2023-12-09T10:24:33.152Z,30.17
2023-12-09T10:27:36.355Z,23.40
2023-12-09T10:30:39.533Z,24.75
2023-12-09T10:33:47.118Z,26.92
2023-12-09T10:36:50.090Z,25.27
2023-12-09T10:39:54.750Z,28.40
2023-12-09T10:42:58.833Z,29.50
2023-12-09T10:46:01.931Z,24.52
2023-12-09T10:49:07.625Z,26.25
2023-12-09T10:52:11.777Z,26.70
2023-12-09T10:55:15.888Z,25.30
2023-12-09T10:58:20.115Z,24.70
2023-12-09T11:01:23.860Z,24.80
2023-12-09T11:04:34.907Z,21.80
2023-12-09T11:07:41.998Z,24.52
2023-12-09T11:13:56.826Z,23.05
2023-12-09T11:17:01.490Z,22.70
2023-12-09T11:23:16.616Z,25.00
2023-12-09T11:26:31.590Z,21.93
2023-12-09T11:29:35.810Z,22.70
2023-12-09T11:32:38.746Z,21.50
2023-12-09T11:35:47.002Z,23.75
2023-12-09T11:38:52.385Z,22.38
2023-12-09T11:41:58.733Z,22.17
2023-12-09T11:45:05.025Z,21.95
2023-12-09T11:48:11.741Z,25.95
2023-12-09T11:51:17.764Z,18.23
2023-12-09T11:54:21.959Z,18.27
2023-12-09T11:57:24.788Z,20.27
2023-12-09T12:00:29.794Z,18.88
2023-12-09T12:03:34.034Z,19.77
2023-12-09T12:06:38.030Z,19.35
2023-12-09T12:09:46.998Z,18.48
2023-12-09T12:12:51.576Z,17.57
2023-12-09T12:15:56.127Z,21.35
2023-12-09T12:19:02.267Z,16.55
2023-12-09T12:22:06.444Z,16.90
2023-12-09T12:25:11.587Z,16.23
2023-12-09T12:28:18.148Z,15.00
2023-12-09T12:31:22.087Z,16.13
2023-12-09T12:34:25.457Z,17.13
2023-12-09T12:37:30.169Z,18.38
2023-12-09T12:40:45.287Z,15.27
2023-12-09T12:43:54.194Z,16.97
2023-12-09T12:46:57.111Z,18.95
2023-12-09T12:50:00.279Z,15.93
2023-12-09T12:53:04.199Z,14.15
2023-12-09T12:56:09.989Z,14.27
2023-12-09T12:59:14.906Z,13.47
2023-12-09T13:02:23.409Z,13.98
2023-12-09T13:05:26.500Z,15.30
2023-12-09T13:08:29.406Z,15.80
2023-12-09T13:11:33.631Z,14.32
2023-12-09T13:14:36.623Z,15.63
2023-12-09T13:17:40.264Z,17.50
2023-12-09T13:20:48.084Z,15.38
2023-12-09T13:23:51.070Z,16.83
2023-12-09T13:27:00.011Z,16.23
2023-12-09T13:30:05.621Z,16.50
2023-12-09T13:33:08.731Z,14.88
2023-12-09T13:36:13.877Z,14.35
2023-12-09T13:39:17.058Z,12.82
2023-12-09T13:42:21.411Z,13.48
2023-12-09T13:45:25.708Z,12.53
2023-12-09T13:48:29.950Z,15.63
2023-12-09T13:51:33.165Z,11.65
2023-12-09T13:54:36.846Z,16.83
2023-12-09T13:57:41.891Z,13.15
2023-12-09T14:00:46.777Z,13.73
2023-12-09T14:03:54.844Z,14.20
2023-12-09T14:06:58.989Z,14.85
2023-12-09T14:10:02.259Z,12.98
2023-12-09T14:13:09.272Z,11.85
2023-12-09T14:16:12.376Z,14.63
2023-12-09T14:19:15.477Z,11.75
2023-12-09T14:22:18.516Z,15.57
2023-12-09T14:25:24.749Z,12.52
2023-12-09T14:28:31.075Z,12.18
2023-12-09T14:31:33.957Z,15.50
2023-12-09T14:34:36.945Z,16.50
2023-12-09T14:37:45.922Z,12.18
2023-12-09T14:40:51.793Z,12.60
2023-12-09T14:44:03.392Z,13.57
2023-12-09T14:47:08.918Z,12.30
2023-12-09T14:50:14.121Z,12.63
2023-12-09T14:53:20.872Z,10.95
2023-12-09T14:56:23.914Z,11.60
2023-12-09T14:59:30.584Z,11.65
2023-12-09T15:02:34.425Z,14.50
2023-12-09T15:05:37.453Z,12.50
2023-12-09T15:08:42.323Z,15.07
2023-12-09T15:11:45.455Z,15.18
2023-12-09T15:14:50.622Z,14.90
2023-12-09T15:17:57.116Z,16.17
2023-12-09T15:21:03.316Z,14.55
2023-12-09T15:24:07.819Z,18.27
2023-12-09T15:27:14.619Z,16.55
2023-12-09T15:30:20.046Z,17.50
2023-12-09T15:33:28.828Z,19.07
2023-12-09T15:36:32.000Z,15.65
2023-12-09T15:39:40.326Z,12.23
2023-12-09T15:42:43.612Z,13.35
2023-12-09T15:45:48.226Z,11.50
2023-12-09T15:48:51.253Z,12.27
2023-12-09T15:51:55.513Z,12.15
2023-12-09T15:54:58.851Z,11.63
2023-12-09T15:58:02.111Z,12.65
2023-12-09T16:01:06.705Z,12.85
2023-12-09T16:04:09.723Z,12.73
2023-12-09T16:07:13.106Z,14.25
2023-12-09T16:10:16.750Z,15.57
2023-12-09T16:13:24.828Z,13.32
2023-12-09T16:16:29.443Z,14.45
2023-12-09T16:19:32.549Z,13.77
2023-12-09T16:22:35.593Z,15.18
2023-12-09T16:25:38.944Z,15.48
2023-12-09T16:28:43.005Z,13.23
2023-12-09T16:31:47.769Z,14.73
2023-12-09T16:34:50.923Z,14.80
2023-12-09T16:37:53.853Z,13.70
2023-12-09T16:40:56.725Z,15.63
2023-12-09T16:43:59.520Z,17.00
2023-12-09T16:47:05.349Z,15.27
2023-12-09T16:50:11.846Z,15.37
2023-12-09T16:53:21.374Z,13.77
2023-12-09T16:56:28.413Z,15.57
2023-12-09T16:59:33.736Z,16.10
2023-12-09T17:02:39.197Z,20.20
2023-12-09T17:05:44.800Z,17.23
2023-12-09T17:08:49.794Z,17.80
2023-12-09T17:11:53.999Z,18.63
2023-12-09T17:14:56.884Z,18.27
2023-12-09T17:18:01.281Z,18.80
2023-12-09T17:21:04.578Z,19.70
2023-12-09T17:24:07.854Z,20.92
2023-12-09T17:27:11.989Z,18.20
2023-12-09T17:30:17.125Z,20.15
2023-12-09T17:33:23.884Z,19.52
2023-12-09T17:36:28.479Z,20.17
2023-12-09T17:39:33.773Z,21.40
2023-12-09T17:42:39.294Z,19.42
2023-12-09T17:45:43.416Z,19.05
2023-12-09T17:48:49.178Z,19.30
2023-12-09T17:51:52.259Z,20.47
2023-12-09T17:54:55.307Z,18.63
2023-12-09T17:57:58.931Z,23.58
2023-12-09T18:01:05.046Z,23.63
2023-12-09T18:04:09.562Z,21.08
2023-12-09T18:07:12.537Z,20.23
2023-12-09T18:10:18.534Z,23.02
2023-12-09T18:13:24.125Z,26.67
2023-12-09T18:16:29.207Z,22.00
2023-12-09T18:19:33.637Z,21.10
2023-12-09T18:22:37.070Z,21.37
2023-12-09T18:25:42.108Z,22.08
2023-12-09T18:28:45.348Z,23.48
2023-12-09T18:31:48.366Z,23.40
2023-12-09T18:34:55.741Z,21.52
2023-12-09T18:38:04.910Z,26.40
2023-12-09T18:41:10.888Z,23.30
2023-12-09T18:44:16.525Z,24.95
2023-12-09T18:47:21.498Z,23.92
2023-12-09T18:50:25.818Z,22.83
2023-12-09T18:53:28.887Z,24.47
2023-12-09T18:56:31.881Z,24.50
2023-12-09T18:59:34.884Z,25.17
2023-12-09T19:02:39.966Z,22.40
2023-12-09T19:05:49.466Z,25.20
2023-12-09T19:08:54.918Z,21.90
2023-12-09T19:11:58.372Z,24.92
2023-12-09T19:15:01.259Z,21.98
2023-12-09T19:18:07.769Z,22.35
2023-12-09T19:21:16.495Z,23.60
2023-12-09T19:24:19.523Z,24.17
2023-12-09T19:27:22.572Z,25.70
2023-12-09T19:30:25.674Z,24.67
2023-12-09T19:33:29.959Z,24.15
2023-12-09T19:36:34.362Z,24.55
2023-12-09T19:39:37.412Z,21.70
2023-12-09T19:42:40.624Z,22.92
2023-12-09T19:45:43.794Z,21.95
2023-12-09T19:48:46.807Z,22.75
2023-12-09T19:51:51.082Z,24.98
2023-12-09T19:54:54.537Z,24.67
2023-12-09T19:57:58.270Z,25.63
2023-12-09T20:01:02.130Z,22.85
2023-12-09T20:04:05.342Z,24.90
2023-12-09T20:07:09.749Z,21.23
2023-12-09T20:10:13.092Z,25.93
2023-12-09T20:13:17.099Z,27.05
2023-12-09T20:16:19.937Z,23.45
2023-12-09T20:19:25.848Z,24.15
2023-12-09T20:22:30.984Z,24.17
2023-12-09T20:25:34.431Z,22.57
2023-12-09T20:28:37.354Z,22.55
2023-12-09T20:31:40.138Z,22.75
2023-12-09T20:34:43.195Z,23.00
2023-12-09T20:37:48.298Z,26.88
2023-12-09T20:40:51.138Z,22.57
2023-12-09T20:43:54.042Z,21.27
2023-12-09T20:46:56.960Z,20.63
2023-12-09T20:50:00.086Z,21.75
2023-12-09T20:53:06.927Z,20.02
2023-12-09T20:56:17.543Z,23.40
2023-12-09T20:59:20.355Z,22.10
2023-12-09T21:02:24.820Z,23.27
2023-12-09T21:05:27.888Z,23.50
2023-12-09T21:08:32.133Z,20.75
2023-12-09T21:11:38.480Z,24.23
2023-12-09T21:14:41.278Z,20.63
2023-12-09T21:17:44.363Z,20.73
2023-12-09T21:20:47.356Z,22.55
2023-12-09T21:23:51.545Z,21.08
2023-12-09T21:26:54.495Z,20.33
2023-12-09T21:29:57.586Z,22.80
2023-12-09T21:33:01.163Z,21.38
2023-12-09T21:36:04.324Z,20.42
2023-12-09T21:39:09.903Z,23.35
2023-12-09T21:42:12.784Z,19.20
2023-12-09T21:45:15.830Z,21.77
2023-12-09T21:48:18.813Z,19.40
2023-12-09T21:51:22.242Z,19.63
2023-12-09T21:54:26.584Z,19.65
2023-12-09T21:57:29.566Z,21.83
2023-12-09T22:00:32.372Z,19.08
2023-12-09T22:03:35.419Z,18.85
2023-12-09T22:06:38.342Z,20.98
2023-12-09T22:09:42.830Z,20.55
2023-12-09T22:12:47.208Z,19.63
2023-12-09T22:15:50.295Z,19.88
2023-12-09T22:18:53.177Z,17.77
2023-12-09T22:21:56.208Z,17.58
2023-12-09T22:25:00.729Z,16.95
2023-12-09T22:28:04.284Z,18.73
2023-12-09T22:31:09.624Z,18.38
2023-12-09T22:34:13.054Z,16.42
2023-12-09T22:37:16.763Z,16.00
2023-12-09T22:40:21.054Z,15.60
2023-12-09T22:43:24.042Z,18.07
2023-12-09T22:46:28.429Z,17.25
2023-12-09T22:49:31.628Z,15.82
2023-12-09T22:52:34.536Z,18.30
2023-12-09T22:55:38.724Z,14.38
2023-12-09T22:58:41.694Z,16.87
2023-12-09T23:01:46.195Z,16.58
2023-12-09T23:04:49.303Z,17.23
2023-12-09T23:07:52.223Z,16.75
2023-12-09T23:10:56.532Z,15.68
2023-12-09T23:13:59.391Z,15.40
2023-12-09T23:17:02.455Z,14.30
2023-12-09T23:20:06.584Z,15.32
2023-12-09T23:23:09.902Z,13.82
2023-12-09T23:26:14.350Z,14.13
2023-12-09T23:29:17.160Z,14.90
2023-12-09T23:32:20.019Z,14.15
2023-12-09T23:35:22.821Z,13.80
2023-12-09T23:38:25.696Z,16.70
2023-12-09T23:41:30.145Z,17.80
2023-12-09T23:44:32.991Z,12.87
2023-12-09T23:47:35.989Z,14.13
2023-12-09T23:50:38.866Z,14.35
2023-12-09T23:53:41.862Z,16.05
2023-12-09T23:56:46.024Z,14.27
2023-12-09T23:59:48.965Z,16.43
